createdAt,value
2023-10-29T00:01:47.131Z,61.39
2023-10-29T00:04:17.192Z,61.69
2023-10-29T00:06:47.151Z,61.98
2023-10-29T00:09:22.512Z,62.31
2023-10-29T00:11:52.417Z,62.37
2023-10-29T00:14:23.089Z,62.28
2023-10-29T00:16:53.194Z,62.60
2023-10-29T00:19:23.052Z,62.75
2023-10-29T00:21:52.845Z,62.22
2023-10-29T00:24:23.840Z,62.03
2023-10-29T00:26:53.761Z,62.02
2023-10-29T00:29:24.114Z,62.06
2023-10-29T00:31:53.937Z,61.89
2023-10-29T00:34:26.271Z,61.86
2023-10-29T00:36:56.164Z,62.27
2023-10-29T00:39:27.067Z,62.18
2023-10-29T00:41:56.949Z,62.34
2023-10-29T00:44:26.850Z,62.63
2023-10-29T00:46:56.902Z,62.55
2023-10-29T00:49:27.683Z,62.89
2023-10-29T00:51:57.640Z,62.85
2023-10-29T00:54:31.555Z,62.98
2023-10-29T00:57:01.640Z,63.12
2023-10-29T00:59:35.517Z,62.83
2023-10-29T01:02:05.603Z,62.94
2023-10-29T01:04:37.248Z,63.17
2023-10-29T01:07:07.138Z,62.88
2023-10-29T01:09:37.515Z,63.03
2023-10-29T01:12:15.775Z,63.45
2023-10-29T01:14:48.307Z,63.01
2023-10-29T01:17:19.194Z,62.79
2023-10-29T01:19:55.064Z,62.49
2023-10-29T01:22:25.076Z,62.47
2023-10-29T01:24:55.073Z,62.67
2023-10-29T01:27:24.965Z,62.80
2023-10-29T01:29:55.012Z,62.71
2023-10-29T01:32:24.972Z,62.81
2023-10-29T01:34:55.024Z,62.69
2023-10-29T01:37:25.300Z,62.45
2023-10-29T01:39:56.302Z,62.50
2023-10-29T01:42:27.448Z,62.64
2023-10-29T01:44:57.447Z,62.70
2023-10-29T01:47:27.387Z,62.70
2023-10-29T01:49:57.542Z,62.72
2023-10-29T01:52:27.744Z,62.49
2023-10-29T01:55:09.590Z,62.99
2023-10-29T01:57:39.665Z,62.89
2023-10-29T02:00:21.289Z,62.74
2023-10-29T02:02:53.077Z,63.03
2023-10-29T02:05:24.079Z,62.81
2023-10-29T02:07:54.208Z,62.82
2023-10-29T02:10:28.568Z,62.30
2023-10-29T02:12:58.532Z,61.98
2023-10-29T02:15:28.864Z,61.89
2023-10-29T02:17:58.786Z,61.83
2023-10-29T02:20:28.654Z,61.73
2023-10-29T02:22:58.519Z,62.07
2023-10-29T02:25:29.107Z,61.94
2023-10-29T02:27:58.917Z,61.99
2023-10-29T02:30:28.724Z,61.99
2023-10-29T02:32:58.867Z,61.94
2023-10-29T02:35:39.319Z,62.13
2023-10-29T02:38:09.155Z,61.92
2023-10-29T02:40:44.099Z,61.82
2023-10-29T02:43:14.788Z,61.76
2023-10-29T02:45:46.153Z,61.39
2023-10-29T02:48:16.931Z,61.71
2023-10-29T02:50:47.462Z,61.81
2023-10-29T02:53:17.330Z,61.71
2023-10-29T02:55:47.628Z,61.95
2023-10-29T02:58:17.533Z,61.92
2023-10-29T03:00:50.387Z,61.87
2023-10-29T03:03:20.581Z,61.90
2023-10-29T03:05:57.234Z,61.78
2023-10-29T03:08:32.737Z,61.89
2023-10-29T03:11:06.595Z,62.13
2023-10-29T03:13:37.377Z,62.09
2023-10-29T03:16:11.113Z,62.17
2023-10-29T03:18:40.990Z,61.53
2023-10-29T03:21:16.385Z,61.61
2023-10-29T03:23:46.321Z,61.47
2023-10-29T03:26:18.229Z,61.45
2023-10-29T03:28:48.371Z,61.60
2023-10-29T03:31:20.103Z,61.58
2023-10-29T03:33:50.098Z,61.55
2023-10-29T03:36:20.702Z,61.51
2023-10-29T03:38:50.676Z,61.33
2023-10-29T03:41:23.877Z,61.42
2023-10-29T03:43:53.747Z,61.73
2023-10-29T03:46:24.269Z,61.70
2023-10-29T03:48:54.668Z,61.71
2023-10-29T03:51:29.258Z,61.76
2023-10-29T03:53:59.222Z,62.06
2023-10-29T03:56:29.038Z,61.92
2023-10-29T03:58:58.869Z,61.94
2023-10-29T04:01:28.886Z,61.85
2023-10-29T04:03:59.308Z,61.81
2023-10-29T04:06:29.200Z,61.50
2023-10-29T04:08:59.088Z,61.76
2023-10-29T04:11:28.984Z,61.61
2023-10-29T04:13:58.841Z,61.60
2023-10-29T04:16:29.409Z,61.56
2023-10-29T04:18:59.279Z,61.70
2023-10-29T04:21:29.101Z,61.91
2023-10-29T04:23:59.008Z,62.02
2023-10-29T04:26:29.217Z,61.95
2023-10-29T04:29:00.435Z,61.83
2023-10-29T04:31:35.300Z,62.00
2023-10-29T04:34:05.838Z,62.12
2023-10-29T04:36:35.666Z,62.01
2023-10-29T04:39:05.489Z,62.05
2023-10-29T04:41:35.546Z,61.97
2023-10-29T04:44:06.314Z,61.76
2023-10-29T04:46:36.148Z,61.68
2023-10-29T04:49:06.175Z,61.83
2023-10-29T04:51:44.095Z,61.76
2023-10-29T04:54:14.008Z,61.98
2023-10-29T04:56:43.939Z,62.00
2023-10-29T04:59:14.559Z,62.19
2023-10-29T05:01:44.569Z,62.14
2023-10-29T05:04:14.553Z,61.87
2023-10-29T05:06:46.887Z,61.82
2023-10-29T05:09:16.705Z,61.75
2023-10-29T05:11:46.788Z,61.84
2023-10-29T05:14:16.672Z,61.70
2023-10-29T05:16:47.100Z,61.82
2023-10-29T05:19:16.902Z,61.84
2023-10-29T05:21:46.747Z,61.51
2023-10-29T05:24:16.674Z,61.48
2023-10-29T05:26:46.555Z,61.27
2023-10-29T05:29:17.498Z,61.43
2023-10-29T05:31:47.821Z,61.40
2023-10-29T05:34:17.635Z,61.18
2023-10-29T05:36:48.413Z,61.18
2023-10-29T05:39:18.481Z,61.12
2023-10-29T05:41:48.762Z,61.12
2023-10-29T05:44:18.573Z,61.04
2023-10-29T05:46:49.470Z,61.07
2023-10-29T05:49:19.356Z,61.29
2023-10-29T05:51:51.300Z,61.00
2023-10-29T05:54:21.113Z,61.09
2023-10-29T05:56:51.594Z,60.97
2023-10-29T05:59:21.824Z,60.91
2023-10-29T06:01:52.227Z,60.86
2023-10-29T06:04:22.195Z,60.90
2023-10-29T06:06:52.050Z,60.73
2023-10-29T06:09:24.475Z,60.88
2023-10-29T06:11:54.894Z,60.98
2023-10-29T06:14:24.849Z,61.12
2023-10-29T06:17:05.992Z,60.83
2023-10-29T06:19:42.005Z,61.23
2023-10-29T06:22:12.187Z,61.27
2023-10-29T06:24:42.213Z,61.47
2023-10-29T06:27:12.462Z,61.18
2023-10-29T06:29:42.419Z,60.75
2023-10-29T06:32:12.802Z,60.77
2023-10-29T06:34:42.645Z,61.07
2023-10-29T06:37:20.140Z,60.57
2023-10-29T06:39:50.096Z,60.51
2023-10-29T06:42:19.928Z,60.82
2023-10-29T06:44:49.960Z,60.44
2023-10-29T06:47:19.990Z,60.43
2023-10-29T06:49:51.950Z,60.29
2023-10-29T06:52:24.377Z,60.31
2023-10-29T06:54:54.766Z,60.56
2023-10-29T06:57:25.304Z,60.04
2023-10-29T06:59:55.539Z,60.41
2023-10-29T07:02:26.040Z,60.62
2023-10-29T07:04:56.076Z,60.44
2023-10-29T07:07:29.588Z,60.28
2023-10-29T07:09:59.432Z,60.21
2023-10-29T07:12:29.220Z,60.10
2023-10-29T07:14:59.976Z,60.38
2023-10-29T07:17:30.423Z,60.41
2023-10-29T07:20:00.460Z,60.18
2023-10-29T07:22:31.622Z,60.25
2023-10-29T07:25:01.506Z,60.01
2023-10-29T07:27:31.813Z,60.32
2023-10-29T07:30:01.984Z,60.54
2023-10-29T07:32:32.126Z,59.82
2023-10-29T07:35:02.063Z,60.43
2023-10-29T07:37:33.978Z,60.25
2023-10-29T07:40:04.091Z,60.35
2023-10-29T07:42:34.665Z,60.01
2023-10-29T07:45:05.123Z,59.74
2023-10-29T07:47:35.717Z,59.72
2023-10-29T07:50:07.299Z,59.91
2023-10-29T07:52:41.077Z,60.10
2023-10-29T07:55:11.156Z,60.28
2023-10-29T07:57:43.517Z,60.17
2023-10-29T08:00:16.554Z,60.01
2023-10-29T08:02:47.561Z,60.49
2023-10-29T08:05:17.568Z,60.35
2023-10-29T08:07:48.001Z,60.44
2023-10-29T08:10:17.970Z,60.46
2023-10-29T08:12:47.962Z,60.18
2023-10-29T08:15:18.072Z,60.46
2023-10-29T08:17:49.588Z,60.67
2023-10-29T08:20:19.452Z,60.38
2023-10-29T08:22:49.334Z,60.67
2023-10-29T08:25:19.229Z,60.57
2023-10-29T08:27:52.208Z,60.73
2023-10-29T08:30:22.085Z,60.54
2023-10-29T08:32:52.028Z,60.76
2023-10-29T08:35:21.966Z,60.64
2023-10-29T08:37:51.852Z,60.97
2023-10-29T08:40:21.686Z,61.24
2023-10-29T08:42:52.130Z,61.42
2023-10-29T08:45:38.303Z,61.24
2023-10-29T08:48:12.394Z,61.14
2023-10-29T08:50:42.403Z,61.35
2023-10-29T08:53:12.821Z,61.22
2023-10-29T08:55:42.890Z,61.38
2023-10-29T08:58:13.275Z,61.50
2023-10-29T09:00:46.885Z,61.56
2023-10-29T09:03:17.342Z,61.83
2023-10-29T09:05:47.847Z,61.57
2023-10-29T09:08:17.883Z,61.84
2023-10-29T09:10:47.849Z,61.58
2023-10-29T09:13:20.312Z,61.66
2023-10-29T09:15:50.463Z,61.62
2023-10-29T09:18:22.043Z,61.72
2023-10-29T09:20:53.155Z,62.14
2023-10-29T09:23:24.410Z,62.23
2023-10-29T09:25:54.338Z,62.21
2023-10-29T09:28:25.280Z,62.07
2023-10-29T09:30:55.107Z,62.48
2023-10-29T09:33:25.323Z,62.29
2023-10-29T09:35:55.182Z,62.29
2023-10-29T09:38:25.566Z,62.49
2023-10-29T09:40:56.887Z,62.33
2023-10-29T09:43:31.830Z,62.47
2023-10-29T09:46:05.899Z,62.65
2023-10-29T09:48:37.311Z,62.17
2023-10-29T09:51:08.099Z,62.21
2023-10-29T09:53:40.814Z,62.34
2023-10-29T09:56:11.505Z,62.59
2023-10-29T09:58:42.530Z,62.41
2023-10-29T10:01:12.505Z,62.42
2023-10-29T10:03:43.039Z,62.64
2023-10-29T10:06:16.828Z,63.05
2023-10-29T10:08:58.669Z,62.79
2023-10-29T10:11:28.822Z,62.99
2023-10-29T10:13:59.230Z,62.52
2023-10-29T10:16:29.155Z,62.91
2023-10-29T10:19:03.071Z,62.48
2023-10-29T10:21:44.663Z,63.16
2023-10-29T10:24:16.054Z,63.30
2023-10-29T10:26:46.116Z,63.65
2023-10-29T10:29:15.986Z,63.48
2023-10-29T10:31:45.887Z,63.31
2023-10-29T10:34:20.449Z,63.48
2023-10-29T10:36:50.537Z,63.78
2023-10-29T10:39:23.884Z,64.00
2023-10-29T10:41:53.837Z,63.58
2023-10-29T10:44:28.263Z,64.25
2023-10-29T10:47:00.185Z,63.97
2023-10-29T10:49:35.301Z,63.84
2023-10-29T10:52:05.788Z,64.01
2023-10-29T10:54:37.451Z,64.48
2023-10-29T10:57:08.245Z,64.20
2023-10-29T10:59:41.219Z,64.08
2023-10-29T11:02:14.106Z,64.61
2023-10-29T11:04:47.694Z,64.76
2023-10-29T11:07:17.869Z,64.81
2023-10-29T11:09:48.367Z,64.62
2023-10-29T11:12:21.244Z,64.93
2023-10-29T11:15:21.700Z,65.20
2023-10-29T11:17:59.732Z,65.04
2023-10-29T11:20:40.102Z,64.85
2023-10-29T11:23:13.537Z,64.57
2023-10-29T11:25:44.152Z,64.84
2023-10-29T11:28:26.215Z,65.12
2023-10-29T11:31:31.938Z,66.09
2023-10-29T11:34:01.774Z,65.23
2023-10-29T11:36:39.731Z,65.51
2023-10-29T11:39:15.988Z,65.54
2023-10-29T11:41:47.584Z,65.32
2023-10-29T11:44:26.755Z,65.44
2023-10-29T11:46:57.239Z,65.14
2023-10-29T11:49:28.083Z,65.64
2023-10-29T11:52:05.162Z,66.00
2023-10-29T11:54:38.494Z,65.86
2023-10-29T11:57:08.741Z,66.36
2023-10-29T11:59:55.604Z,66.95
2023-10-29T12:02:26.610Z,66.38
2023-10-29T12:04:57.782Z,66.03
2023-10-29T12:07:31.895Z,66.22
2023-10-29T12:10:05.998Z,66.59
2023-10-29T12:12:36.582Z,66.58
2023-10-29T12:15:08.843Z,66.80
2023-10-29T12:17:44.879Z,67.59
2023-10-29T12:20:26.857Z,67.33
2023-10-29T12:22:59.413Z,67.24
2023-10-29T12:25:30.238Z,67.26
2023-10-29T12:28:02.255Z,67.25
2023-10-29T12:30:36.107Z,67.44
2023-10-29T12:33:24.021Z,68.15
2023-10-29T12:35:56.702Z,67.28
2023-10-29T12:38:29.371Z,67.70
2023-10-29T12:41:09.757Z,67.88
2023-10-29T12:43:48.528Z,68.16
2023-10-29T12:46:20.955Z,67.76
2023-10-29T12:49:09.094Z,68.90
2023-10-29T12:51:42.336Z,68.34
2023-10-29T12:54:21.685Z,68.19
2023-10-29T12:57:13.502Z,68.43
2023-10-29T12:59:45.348Z,68.61
2023-10-29T13:02:23.889Z,69.09
2023-10-29T13:04:54.085Z,68.40
2023-10-29T13:07:23.999Z,68.15
2023-10-29T13:09:56.494Z,68.47
2023-10-29T13:12:29.158Z,68.78
2023-10-29T13:14:59.161Z,68.49
2023-10-29T13:17:30.648Z,68.76
2023-10-29T13:20:03.937Z,69.11
2023-10-29T13:22:33.830Z,68.88
2023-10-29T13:25:05.628Z,69.27
2023-10-29T13:27:35.845Z,69.46
2023-10-29T13:30:08.940Z,69.37
2023-10-29T13:32:38.857Z,69.34
2023-10-29T13:35:10.325Z,69.72
2023-10-29T13:37:40.182Z,69.18
2023-10-29T13:40:11.103Z,70.06
2023-10-29T13:42:40.923Z,69.92
2023-10-29T13:45:13.483Z,69.98
2023-10-29T13:47:44.119Z,69.93
2023-10-29T13:50:14.585Z,69.94
2023-10-29T13:52:44.551Z,70.03
2023-10-29T13:55:15.028Z,70.32
2023-10-29T13:57:44.841Z,70.64
2023-10-29T14:00:15.683Z,70.36
2023-10-29T14:02:45.656Z,70.67
2023-10-29T14:05:15.524Z,70.83
2023-10-29T14:07:45.373Z,70.50
2023-10-29T14:10:15.799Z,70.35
2023-10-29T14:12:47.219Z,70.61
2023-10-29T14:15:17.558Z,71.02
2023-10-29T14:17:47.569Z,70.92
2023-10-29T14:20:18.663Z,71.32
2023-10-29T14:22:48.573Z,71.54
2023-10-29T14:25:19.030Z,71.53
2023-10-29T14:27:48.806Z,71.18
2023-10-29T14:30:18.843Z,71.47
2023-10-29T14:32:48.840Z,71.47
2023-10-29T14:35:19.078Z,71.50
2023-10-29T14:37:52.111Z,72.29
2023-10-29T14:40:22.425Z,72.42
2023-10-29T14:42:59.048Z,72.25
2023-10-29T14:45:43.276Z,72.27
2023-10-29T14:48:13.216Z,72.15
2023-10-29T14:50:43.332Z,72.72
2023-10-29T14:53:13.371Z,72.78
2023-10-29T14:55:47.756Z,73.06
2023-10-29T14:58:18.053Z,72.83
2023-10-29T15:00:48.509Z,72.69
2023-10-29T15:03:18.516Z,73.07
2023-10-29T15:05:48.909Z,73.28
2023-10-29T15:08:18.742Z,73.09
2023-10-29T15:10:53.111Z,72.91
2023-10-29T15:13:23.136Z,72.95
2023-10-29T15:15:53.383Z,72.66
2023-10-29T15:18:23.373Z,73.09
2023-10-29T15:21:00.777Z,72.88
2023-10-29T15:23:31.914Z,73.10
2023-10-29T15:26:02.482Z,73.02
2023-10-29T15:28:32.368Z,72.98
2023-10-29T15:31:09.919Z,73.53
2023-10-29T15:33:40.199Z,73.42
2023-10-29T15:36:12.073Z,73.30
2023-10-29T15:38:42.893Z,73.48
2023-10-29T15:41:13.826Z,73.49
2023-10-29T15:43:43.715Z,73.43
2023-10-29T15:46:13.703Z,73.88
2023-10-29T15:48:43.724Z,73.68
2023-10-29T15:51:13.672Z,74.38
2023-10-29T15:53:43.778Z,74.36
2023-10-29T15:56:14.212Z,74.32
2023-10-29T15:58:44.151Z,74.20
2023-10-29T16:01:21.158Z,74.84
2023-10-29T16:03:51.728Z,74.66
2023-10-29T16:06:22.151Z,74.38
2023-10-29T16:08:51.961Z,74.75
2023-10-29T16:11:27.648Z,74.60
2023-10-29T16:13:57.807Z,74.71
2023-10-29T16:16:28.971Z,74.65
2023-10-29T16:18:59.038Z,74.56
2023-10-29T16:21:28.958Z,74.70
2023-10-29T16:23:59.070Z,75.01
2023-10-29T16:26:28.913Z,74.70
2023-10-29T16:28:58.766Z,75.22
2023-10-29T16:31:28.670Z,75.38
2023-10-29T16:33:58.625Z,75.26
2023-10-29T16:36:29.118Z,75.24
2023-10-29T16:38:59.050Z,75.51
2023-10-29T16:41:29.533Z,75.53
2023-10-29T16:44:02.120Z,75.82
2023-10-29T16:46:33.074Z,75.75
2023-10-29T16:49:03.551Z,76.10
2023-10-29T16:51:33.529Z,76.10
2023-10-29T16:54:03.741Z,75.94
2023-10-29T16:56:34.191Z,76.07
2023-10-29T16:59:05.558Z,76.31
2023-10-29T17:01:37.290Z,76.03
2023-10-29T17:04:07.232Z,76.03
2023-10-29T17:06:37.108Z,76.16
2023-10-29T17:09:07.005Z,76.25
2023-10-29T17:11:36.879Z,76.32
2023-10-29T17:14:06.739Z,76.01
2023-10-29T17:16:36.652Z,76.11
2023-10-29T17:19:07.168Z,76.39
2023-10-29T17:21:37.177Z,76.37
2023-10-29T17:24:08.075Z,76.39
2023-10-29T17:26:38.666Z,76.59
2023-10-29T17:29:08.752Z,76.36
2023-10-29T17:31:39.248Z,76.35
2023-10-29T17:34:09.173Z,76.50
2023-10-29T17:36:39.572Z,76.52
2023-10-29T17:39:13.829Z,76.71
2023-10-29T17:41:43.706Z,76.75
2023-10-29T17:44:13.642Z,76.76
2023-10-29T17:46:44.299Z,76.66
2023-10-29T17:49:14.270Z,76.71
2023-10-29T17:51:44.658Z,76.57
2023-10-29T17:54:14.605Z,76.58
2023-10-29T17:56:45.012Z,76.71
2023-10-29T17:59:14.972Z,76.87
2023-10-29T18:01:44.838Z,77.03
2023-10-29T18:04:15.221Z,76.84
2023-10-29T18:06:50.894Z,76.97
2023-10-29T18:09:20.782Z,76.83
2023-10-29T18:11:51.939Z,76.96
2023-10-29T18:14:21.818Z,76.65
2023-10-29T18:16:52.668Z,76.73
2023-10-29T18:19:22.480Z,76.62
2023-10-29T18:21:52.805Z,76.72
2023-10-29T18:24:22.732Z,76.58
2023-10-29T18:26:53.418Z,76.50
2023-10-29T18:29:23.416Z,76.57
2023-10-29T18:31:53.906Z,76.72
2023-10-29T18:34:24.076Z,76.46
2023-10-29T18:36:54.502Z,76.43
2023-10-29T18:39:24.533Z,76.61
2023-10-29T18:41:54.894Z,76.80
2023-10-29T18:44:31.104Z,76.52
2023-10-29T18:47:01.829Z,76.63
2023-10-29T18:49:31.891Z,76.54
2023-10-29T18:52:04.065Z,76.71
2023-10-29T18:54:36.870Z,76.74
2023-10-29T18:57:07.987Z,76.71
2023-10-29T18:59:37.929Z,76.62
2023-10-29T19:02:07.803Z,76.53
2023-10-29T19:04:37.757Z,76.61
2023-10-29T19:07:11.247Z,76.54
2023-10-29T19:09:41.099Z,76.52
2023-10-29T19:12:10.995Z,76.04
2023-10-29T19:14:43.563Z,76.39
2023-10-29T19:17:13.885Z,76.41
2023-10-29T19:19:43.781Z,76.39
2023-10-29T19:22:14.348Z,76.66
2023-10-29T19:24:44.446Z,76.41
2023-10-29T19:27:14.506Z,76.46
2023-10-29T19:29:44.430Z,76.64
2023-10-29T19:32:14.826Z,76.58
2023-10-29T19:34:44.596Z,76.25
2023-10-29T19:37:18.323Z,76.33
2023-10-29T19:39:48.352Z,76.51
2023-10-29T19:42:18.951Z,76.54
2023-10-29T19:44:48.859Z,76.44
2023-10-29T19:47:19.195Z,76.87
2023-10-29T19:49:49.194Z,76.88
2023-10-29T19:52:20.248Z,76.80
2023-10-29T19:54:55.099Z,76.75
2023-10-29T19:57:25.651Z,76.64
2023-10-29T19:59:55.673Z,76.67
2023-10-29T20:02:26.149Z,76.65
2023-10-29T20:04:56.312Z,76.66
2023-10-29T20:07:27.064Z,76.57
2023-10-29T20:09:56.854Z,76.58
2023-10-29T20:12:27.367Z,76.44
2023-10-29T20:14:57.238Z,76.52
2023-10-29T20:17:29.171Z,76.34
2023-10-29T20:19:59.061Z,76.27
2023-10-29T20:22:28.928Z,76.30
2023-10-29T20:24:59.450Z,76.09
2023-10-29T20:27:29.330Z,76.21
2023-10-29T20:29:59.199Z,76.01
2023-10-29T20:32:29.666Z,75.94
2023-10-29T20:34:59.611Z,75.88
2023-10-29T20:37:31.205Z,75.75
2023-10-29T20:40:01.125Z,75.75
2023-10-29T20:42:31.083Z,75.95
2023-10-29T20:45:00.987Z,75.70
2023-10-29T20:47:31.273Z,75.91
2023-10-29T20:50:01.449Z,75.87
2023-10-29T20:52:31.531Z,75.93
2023-10-29T20:55:01.510Z,75.76
2023-10-29T20:57:31.763Z,75.90
2023-10-29T21:00:04.149Z,76.05
2023-10-29T21:02:34.756Z,76.15
2023-10-29T21:05:05.369Z,76.18
2023-10-29T21:07:35.280Z,76.17
2023-10-29T21:10:06.279Z,76.38
2023-10-29T21:12:38.436Z,76.50
2023-10-29T21:15:09.198Z,76.25
2023-10-29T21:17:41.542Z,76.30
2023-10-29T21:20:11.769Z,76.33
2023-10-29T21:22:43.165Z,76.53
2023-10-29T21:25:13.011Z,76.18
2023-10-29T21:27:43.487Z,76.14
2023-10-29T21:30:14.454Z,76.17
2023-10-29T21:32:44.545Z,76.06
2023-10-29T21:35:14.810Z,76.20
2023-10-29T21:37:46.473Z,76.20
2023-10-29T21:40:16.610Z,76.20
2023-10-29T21:42:46.958Z,76.16
2023-10-29T21:45:16.793Z,76.15
2023-10-29T21:47:46.822Z,76.14
2023-10-29T21:50:17.404Z,76.16
2023-10-29T21:52:47.262Z,76.24
2023-10-29T21:55:17.267Z,76.14
2023-10-29T21:57:47.340Z,76.23
2023-10-29T22:00:17.702Z,76.32
2023-10-29T22:02:48.734Z,76.31
2023-10-29T22:05:18.786Z,76.46
2023-10-29T22:07:50.134Z,76.26
2023-10-29T22:10:20.057Z,76.25
2023-10-29T22:12:50.590Z,76.17
2023-10-29T22:15:20.464Z,76.17
2023-10-29T22:17:50.915Z,76.23
2023-10-29T22:20:20.905Z,76.34
2023-10-29T22:22:51.483Z,76.39
2023-10-29T22:25:21.329Z,76.43
2023-10-29T22:27:51.131Z,76.53
2023-10-29T22:30:20.949Z,76.15
2023-10-29T22:32:51.018Z,76.47
2023-10-29T22:35:20.889Z,76.37
2023-10-29T22:37:51.265Z,76.38
2023-10-29T22:40:21.088Z,76.40
2023-10-29T22:42:51.271Z,76.62
2023-10-29T22:45:21.414Z,76.58
2023-10-29T22:47:51.271Z,76.82
2023-10-29T22:50:21.225Z,76.77
2023-10-29T22:52:51.668Z,76.93
2023-10-29T22:55:21.573Z,77.03
2023-10-29T22:57:54.298Z,77.36
2023-10-29T23:00:24.454Z,77.38
2023-10-29T23:02:55.590Z,77.48
2023-10-29T23:05:25.470Z,77.70
2023-10-29T23:07:56.318Z,77.74
2023-10-29T23:10:26.153Z,77.74
2023-10-29T23:12:55.939Z,78.19
2023-10-29T23:15:25.950Z,78.29
2023-10-29T23:17:57.454Z,78.99
2023-10-29T23:20:27.767Z,79.08
2023-10-29T23:22:57.844Z,79.00
2023-10-29T23:25:27.730Z,79.19
2023-10-29T23:27:57.623Z,79.37
2023-10-29T23:30:27.590Z,79.42
2023-10-29T23:32:58.442Z,79.54
2023-10-29T23:35:28.469Z,79.56
2023-10-29T23:37:58.446Z,79.99
2023-10-29T23:40:30.203Z,79.64
2023-10-29T23:43:00.035Z,79.56
2023-10-29T23:45:30.354Z,79.59
2023-10-29T23:48:02.327Z,79.64
2023-10-29T23:50:32.354Z,79.51
2023-10-29T23:53:04.685Z,79.50
2023-10-29T23:55:34.586Z,79.59
2023-10-29T23:58:04.922Z,80.10
